sensor_id;sensor_type;location;lat;lon;timestamp;P1;durP1;ratioP1;P2;durP2;ratioP2
2107;SDS011;1060;52.492;13.388;2023-02-28T00:00:46;5.88;;;4.15;;
2107;SDS011;1060;52.492;13.388;2023-02-28T00:03:12;3.40;;;2.95;;
2107;SDS011;1060;52.492;13.388;2023-02-28T00:05:39;7.25;;;4.63;;
2107;SDS011;1060;52.492;13.388;2023-02-28T00:08:07;5.75;;;2.95;;
2107;SDS011;1060;52.492;13.388;2023-02-28T00:10:33;4.60;;;4.18;;
2107;SDS011;1060;52.492;13.388;2023-02-28T00:13:00;6.28;;;4.07;;
2107;SDS011;1060;52.492;13.388;2023-02-28T00:15:26;6.20;;;4.45;;
2107;SDS011;1060;52.492;13.388;2023-02-28T00:17:53;5.63;;;3.85;;
2107;SDS011;1060;52.492;13.388;2023-02-28T00:20:19;4.45;;;3.45;;
2107;SDS011;1060;52.492;13.388;2023-02-28T00:22:46;6.32;;;3.75;;
2107;SDS011;1060;52.492;13.388;2023-02-28T00:25:14;4.78;;;4.28;;
2107;SDS011;1060;52.492;13.388;2023-02-28T00:27:40;3.80;;;3.30;;
2107;SDS011;1060;52.492;13.388;2023-02-28T00:30:07;4.95;;;3.70;;
2107;SDS011;1060;52.492;13.388;2023-02-28T00:32:36;6.45;;;4.50;;
2107;SDS011;1060;52.492;13.388;2023-02-28T00:35:03;7.43;;;4.68;;
2107;SDS011;1060;52.492;13.388;2023-02-28T00:37:29;4.25;;;3.60;;
2107;SDS011;1060;52.492;13.388;2023-02-28T00:39:55;5.25;;;4.40;;
2107;SDS011;1060;52.492;13.388;2023-02-28T00:42:22;5.93;;;5.32;;
2107;SDS011;1060;52.492;13.388;2023-02-28T00:44:51;5.03;;;4.32;;
2107;SDS011;1060;52.492;13.388;2023-02-28T00:47:17;8.63;;;4.82;;
2107;SDS011;1060;52.492;13.388;2023-02-28T00:49:44;7.30;;;5.00;;
2107;SDS011;1060;52.492;13.388;2023-02-28T00:52:11;6.40;;;4.30;;
2107;SDS011;1060;52.492;13.388;2023-02-28T00:54:37;11.75;;;5.55;;
2107;SDS011;1060;52.492;13.388;2023-02-28T00:57:03;7.40;;;5.72;;
2107;SDS011;1060;52.492;13.388;2023-02-28T00:59:30;6.82;;;6.22;;
2107;SDS011;1060;52.492;13.388;2023-02-28T01:01:56;8.63;;;4.50;;
2107;SDS011;1060;52.492;13.388;2023-02-28T01:04:22;4.75;;;3.67;;
2107;SDS011;1060;52.492;13.388;2023-02-28T01:06:49;6.93;;;5.07;;
2107;SDS011;1060;52.492;13.388;2023-02-28T01:09:15;7.05;;;4.78;;
2107;SDS011;1060;52.492;13.388;2023-02-28T01:11:41;6.18;;;5.20;;
2107;SDS011;1060;52.492;13.388;2023-02-28T01:14:11;12.50;;;5.55;;
2107;SDS011;1060;52.492;13.388;2023-02-28T01:16:38;5.20;;;4.70;;
2107;SDS011;1060;52.492;13.388;2023-02-28T01:19:04;9.52;;;6.38;;
2107;SDS011;1060;52.492;13.388;2023-02-28T01:21:30;6.47;;;5.15;;
2107;SDS011;1060;52.492;13.388;2023-02-28T01:23:56;7.00;;;5.00;;
2107;SDS011;1060;52.492;13.388;2023-02-28T01:26:22;5.78;;;5.28;;
2107;SDS011;1060;52.492;13.388;2023-02-28T01:28:49;6.93;;;5.30;;
2107;SDS011;1060;52.492;13.388;2023-02-28T01:31:16;9.23;;;6.38;;
2107;SDS011;1060;52.492;13.388;2023-02-28T01:33:43;10.18;;;6.88;;
2107;SDS011;1060;52.492;13.388;2023-02-28T01:36:12;6.70;;;4.93;;
2107;SDS011;1060;52.492;13.388;2023-02-28T01:38:38;7.20;;;5.55;;
2107;SDS011;1060;52.492;13.388;2023-02-28T01:41:05;5.18;;;4.57;;
2107;SDS011;1060;52.492;13.388;2023-02-28T01:46:15;5.97;;;5.10;;
2107;SDS011;1060;52.492;13.388;2023-02-28T01:48:57;8.80;;;5.30;;
2107;SDS011;1060;52.492;13.388;2023-02-28T01:51:46;8.48;;;6.18;;
2107;SDS011;1060;52.492;13.388;2023-02-28T01:54:33;11.05;;;5.10;;
2107;SDS011;1060;52.492;13.388;2023-02-28T01:57:07;5.35;;;4.65;;
2107;SDS011;1060;52.492;13.388;2023-02-28T01:59:40;9.57;;;5.85;;
2107;SDS011;1060;52.492;13.388;2023-02-28T02:02:12;7.70;;;5.43;;
2107;SDS011;1060;52.492;13.388;2023-02-28T02:04:42;7.28;;;5.70;;
2107;SDS011;1060;52.492;13.388;2023-02-28T02:07:12;8.07;;;5.05;;
2107;SDS011;1060;52.492;13.388;2023-02-28T02:09:43;5.80;;;5.20;;
2107;SDS011;1060;52.492;13.388;2023-02-28T02:12:32;7.97;;;6.00;;
2107;SDS011;1060;52.492;13.388;2023-02-28T02:15:01;7.80;;;5.68;;
2107;SDS011;1060;52.492;13.388;2023-02-28T02:22:54;5.40;;;4.90;;
2107;SDS011;1060;52.492;13.388;2023-02-28T02:36:07;6.82;;;5.03;;
2107;SDS011;1060;52.492;13.388;2023-02-28T02:38:43;8.80;;;6.53;;
2107;SDS011;1060;52.492;13.388;2023-02-28T02:41:16;7.55;;;5.90;;
2107;SDS011;1060;52.492;13.388;2023-02-28T02:46:20;6.47;;;5.50;;
2107;SDS011;1060;52.492;13.388;2023-02-28T02:48:56;7.35;;;6.55;;
2107;SDS011;1060;52.492;13.388;2023-02-28T02:51:23;10.68;;;6.90;;
2107;SDS011;1060;52.492;13.388;2023-02-28T02:53:52;6.13;;;5.53;;
2107;SDS011;1060;52.492;13.388;2023-02-28T02:56:21;6.95;;;6.35;;
2107;SDS011;1060;52.492;13.388;2023-02-28T02:58:49;8.15;;;6.03;;
2107;SDS011;1060;52.492;13.388;2023-02-28T03:01:18;6.30;;;5.55;;
2107;SDS011;1060;52.492;13.388;2023-02-28T03:04:03;7.45;;;6.05;;
2107;SDS011;1060;52.492;13.388;2023-02-28T03:06:30;8.35;;;6.28;;
2107;SDS011;1060;52.492;13.388;2023-02-28T03:08:56;8.23;;;6.60;;
2107;SDS011;1060;52.492;13.388;2023-02-28T03:11:22;9.40;;;8.25;;
2107;SDS011;1060;52.492;13.388;2023-02-28T03:19:03;6.20;;;5.15;;
2107;SDS011;1060;52.492;13.388;2023-02-28T03:24:14;8.57;;;6.47;;
2107;SDS011;1060;52.492;13.388;2023-02-28T03:26:50;7.93;;;6.03;;
2107;SDS011;1060;52.492;13.388;2023-02-28T03:29:27;7.07;;;6.03;;
2107;SDS011;1060;52.492;13.388;2023-02-28T03:32:01;7.55;;;6.72;;
2107;SDS011;1060;52.492;13.388;2023-02-28T03:34:29;9.95;;;5.90;;
2107;SDS011;1060;52.492;13.388;2023-02-28T03:37:00;8.82;;;6.72;;
2107;SDS011;1060;52.492;13.388;2023-02-28T03:39:33;6.72;;;6.00;;
2107;SDS011;1060;52.492;13.388;2023-02-28T03:42:09;8.30;;;6.25;;
2107;SDS011;1060;52.492;13.388;2023-02-28T03:47:11;7.97;;;5.85;;
2107;SDS011;1060;52.492;13.388;2023-02-28T03:49:49;7.53;;;6.35;;
2107;SDS011;1060;52.492;13.388;2023-02-28T03:52:18;9.63;;;7.43;;
2107;SDS011;1060;52.492;13.388;2023-02-28T03:54:50;8.82;;;8.02;;
2107;SDS011;1060;52.492;13.388;2023-02-28T03:59:59;9.95;;;6.38;;
2107;SDS011;1060;52.492;13.388;2023-02-28T04:02:37;8.98;;;7.95;;
2107;SDS011;1060;52.492;13.388;2023-02-28T04:05:04;8.57;;;7.75;;
2107;SDS011;1060;52.492;13.388;2023-02-28T04:07:31;6.88;;;6.28;;
2107;SDS011;1060;52.492;13.388;2023-02-28T04:09:57;9.35;;;8.52;;
2107;SDS011;1060;52.492;13.388;2023-02-28T04:12:24;11.00;;;7.30;;
2107;SDS011;1060;52.492;13.388;2023-02-28T04:14:50;12.15;;;6.50;;
2107;SDS011;1060;52.492;13.388;2023-02-28T04:17:19;6.80;;;6.22;;
2107;SDS011;1060;52.492;13.388;2023-02-28T04:19:45;8.60;;;7.28;;
2107;SDS011;1060;52.492;13.388;2023-02-28T04:22:11;9.82;;;7.60;;
2107;SDS011;1060;52.492;13.388;2023-02-28T04:24:38;14.80;;;7.88;;
2107;SDS011;1060;52.492;13.388;2023-02-28T04:27:08;8.55;;;7.65;;
2107;SDS011;1060;52.492;13.388;2023-02-28T04:29:34;8.48;;;6.65;;
2107;SDS011;1060;52.492;13.388;2023-02-28T04:32:01;7.25;;;6.50;;
2107;SDS011;1060;52.492;13.388;2023-02-28T04:34:28;9.20;;;8.23;;
2107;SDS011;1060;52.492;13.388;2023-02-28T04:36:55;8.70;;;6.60;;
2107;SDS011;1060;52.492;13.388;2023-02-28T04:39:23;7.88;;;7.15;;
2107;SDS011;1060;52.492;13.388;2023-02-28T04:41:49;7.57;;;6.55;;
2107;SDS011;1060;52.492;13.388;2023-02-28T04:44:15;11.95;;;7.95;;
2107;SDS011;1060;52.492;13.388;2023-02-28T04:46:42;8.63;;;7.03;;
2107;SDS011;1060;52.492;13.388;2023-02-28T04:49:09;10.57;;;8.85;;
2107;SDS011;1060;52.492;13.388;2023-02-28T04:51:36;9.23;;;7.18;;
2107;SDS011;1060;52.492;13.388;2023-02-28T04:54:02;10.35;;;9.20;;
2107;SDS011;1060;52.492;13.388;2023-02-28T04:56:28;16.70;;;11.63;;
2107;SDS011;1060;52.492;13.388;2023-02-28T04:58:57;10.15;;;8.43;;
2107;SDS011;1060;52.492;13.388;2023-02-28T05:01:31;8.20;;;7.40;;
2107;SDS011;1060;52.492;13.388;2023-02-28T05:03:58;9.75;;;8.75;;
2107;SDS011;1060;52.492;13.388;2023-02-28T05:06:25;9.77;;;8.32;;
2107;SDS011;1060;52.492;13.388;2023-02-28T05:08:52;11.45;;;7.82;;
2107;SDS011;1060;52.492;13.388;2023-02-28T05:11:22;15.27;;;8.20;;
2107;SDS011;1060;52.492;13.388;2023-02-28T05:13:52;11.93;;;8.00;;
2107;SDS011;1060;52.492;13.388;2023-02-28T05:16:19;9.98;;;9.00;;
2107;SDS011;1060;52.492;13.388;2023-02-28T05:18:48;9.40;;;7.10;;
2107;SDS011;1060;52.492;13.388;2023-02-28T05:21:22;12.63;;;9.30;;
2107;SDS011;1060;52.492;13.388;2023-02-28T05:23:49;8.45;;;7.70;;
2107;SDS011;1060;52.492;13.388;2023-02-28T05:26:15;9.38;;;7.50;;
2107;SDS011;1060;52.492;13.388;2023-02-28T05:28:41;10.82;;;7.05;;
2107;SDS011;1060;52.492;13.388;2023-02-28T05:31:09;9.55;;;8.15;;
2107;SDS011;1060;52.492;13.388;2023-02-28T05:33:36;9.93;;;8.93;;
2107;SDS011;1060;52.492;13.388;2023-02-28T05:36:02;8.82;;;7.93;;
2107;SDS011;1060;52.492;13.388;2023-02-28T05:38:28;9.82;;;8.90;;
2107;SDS011;1060;52.492;13.388;2023-02-28T05:40:54;12.43;;;7.35;;
2107;SDS011;1060;52.492;13.388;2023-02-28T05:43:21;7.53;;;6.20;;
2107;SDS011;1060;52.492;13.388;2023-02-28T05:45:47;12.00;;;8.95;;
2107;SDS011;1060;52.492;13.388;2023-02-28T05:48:13;9.75;;;8.30;;
2107;SDS011;1060;52.492;13.388;2023-02-28T05:50:39;8.70;;;6.55;;
2107;SDS011;1060;52.492;13.388;2023-02-28T05:53:07;9.43;;;8.07;;
2107;SDS011;1060;52.492;13.388;2023-02-28T05:55:33;7.95;;;6.80;;
2107;SDS011;1060;52.492;13.388;2023-02-28T05:58:01;13.80;;;9.80;;
2107;SDS011;1060;52.492;13.388;2023-02-28T06:00:27;9.95;;;9.15;;
2107;SDS011;1060;52.492;13.388;2023-02-28T06:02:56;7.68;;;6.97;;
2107;SDS011;1060;52.492;13.388;2023-02-28T06:05:29;9.43;;;7.30;;
2107;SDS011;1060;52.492;13.388;2023-02-28T06:08:01;8.75;;;7.95;;
2107;SDS011;1060;52.492;13.388;2023-02-28T06:10:34;8.55;;;7.65;;
2107;SDS011;1060;52.492;13.388;2023-02-28T06:13:00;9.27;;;7.72;;
2107;SDS011;1060;52.492;13.388;2023-02-28T06:15:27;8.68;;;7.03;;
2107;SDS011;1060;52.492;13.388;2023-02-28T06:17:54;12.38;;;8.10;;
2107;SDS011;1060;52.492;13.388;2023-02-28T06:20:24;10.45;;;9.43;;
2107;SDS011;1060;52.492;13.388;2023-02-28T06:23:00;14.93;;;9.25;;
2107;SDS011;1060;52.492;13.388;2023-02-28T06:25:28;12.23;;;8.45;;
2107;SDS011;1060;52.492;13.388;2023-02-28T06:27:57;16.55;;;8.30;;
2107;SDS011;1060;52.492;13.388;2023-02-28T06:30:26;9.15;;;7.50;;
2107;SDS011;1060;52.492;13.388;2023-02-28T06:32:55;13.90;;;8.35;;
2107;SDS011;1060;52.492;13.388;2023-02-28T06:35:21;10.43;;;7.63;;
2107;SDS011;1060;52.492;13.388;2023-02-28T06:37:47;11.82;;;9.63;;
2107;SDS011;1060;52.492;13.388;2023-02-28T06:40:17;10.85;;;9.35;;
2107;SDS011;1060;52.492;13.388;2023-02-28T06:42:43;14.52;;;9.75;;
2107;SDS011;1060;52.492;13.388;2023-02-28T06:45:10;12.85;;;10.80;;
2107;SDS011;1060;52.492;13.388;2023-02-28T06:47:40;9.63;;;8.68;;
2107;SDS011;1060;52.492;13.388;2023-02-28T06:50:10;14.00;;;10.68;;
2107;SDS011;1060;52.492;13.388;2023-02-28T06:52:36;9.75;;;8.75;;
2107;SDS011;1060;52.492;13.388;2023-02-28T06:55:06;11.70;;;9.77;;
2107;SDS011;1060;52.492;13.388;2023-02-28T06:57:33;12.32;;;10.68;;
2107;SDS011;1060;52.492;13.388;2023-02-28T07:00:00;11.13;;;9.95;;
2107;SDS011;1060;52.492;13.388;2023-02-28T07:02:30;13.70;;;11.13;;
2107;SDS011;1060;52.492;13.388;2023-02-28T07:04:59;10.05;;;9.02;;
2107;SDS011;1060;52.492;13.388;2023-02-28T07:07:30;12.13;;;9.52;;
2107;SDS011;1060;52.492;13.388;2023-02-28T07:09:57;10.82;;;9.38;;
2107;SDS011;1060;52.492;13.388;2023-02-28T07:12:23;14.63;;;11.00;;
2107;SDS011;1060;52.492;13.388;2023-02-28T07:14:53;11.07;;;9.98;;
2107;SDS011;1060;52.492;13.388;2023-02-28T07:17:24;14.32;;;11.52;;
2107;SDS011;1060;52.492;13.388;2023-02-28T07:19:50;12.45;;;10.60;;
2107;SDS011;1060;52.492;13.388;2023-02-28T07:22:16;14.90;;;11.50;;
2107;SDS011;1060;52.492;13.388;2023-02-28T07:24:46;14.48;;;10.73;;
2107;SDS011;1060;52.492;13.388;2023-02-28T07:27:15;16.35;;;11.32;;
2107;SDS011;1060;52.492;13.388;2023-02-28T07:29:49;16.90;;;14.95;;
2107;SDS011;1060;52.492;13.388;2023-02-28T07:32:15;14.57;;;12.40;;
2107;SDS011;1060;52.492;13.388;2023-02-28T07:34:41;14.55;;;10.15;;
2107;SDS011;1060;52.492;13.388;2023-02-28T07:37:08;13.13;;;9.35;;
2107;SDS011;1060;52.492;13.388;2023-02-28T07:39:53;9.40;;;8.05;;
2107;SDS011;1060;52.492;13.388;2023-02-28T07:42:24;9.18;;;7.13;;
2107;SDS011;1060;52.492;13.388;2023-02-28T07:44:56;12.90;;;7.85;;
2107;SDS011;1060;52.492;13.388;2023-02-28T07:47:24;9.75;;;8.07;;
2107;SDS011;1060;52.492;13.388;2023-02-28T07:49:50;10.45;;;7.70;;
2107;SDS011;1060;52.492;13.388;2023-02-28T07:52:16;10.15;;;6.78;;
2107;SDS011;1060;52.492;13.388;2023-02-28T07:54:42;8.75;;;6.45;;
2107;SDS011;1060;52.492;13.388;2023-02-28T07:57:09;9.52;;;7.78;;
2107;SDS011;1060;52.492;13.388;2023-02-28T07:59:35;7.50;;;6.80;;
2107;SDS011;1060;52.492;13.388;2023-02-28T08:02:04;14.00;;;7.60;;
2107;SDS011;1060;52.492;13.388;2023-02-28T08:04:39;11.18;;;7.65;;
2107;SDS011;1060;52.492;13.388;2023-02-28T08:07:05;7.40;;;6.72;;
2107;SDS011;1060;52.492;13.388;2023-02-28T08:09:32;8.63;;;5.88;;
2107;SDS011;1060;52.492;13.388;2023-02-28T08:11:59;6.65;;;5.15;;
2107;SDS011;1060;52.492;13.388;2023-02-28T08:14:25;4.10;;;3.58;;
2107;SDS011;1060;52.492;13.388;2023-02-28T08:16:55;7.53;;;5.18;;
2107;SDS011;1060;52.492;13.388;2023-02-28T08:19:30;13.00;;;5.07;;
2107;SDS011;1060;52.492;13.388;2023-02-28T08:21:59;9.57;;;4.60;;
2107;SDS011;1060;52.492;13.388;2023-02-28T08:24:31;4.45;;;4.05;;
2107;SDS011;1060;52.492;13.388;2023-02-28T08:26:58;5.13;;;3.00;;
2107;SDS011;1060;52.492;13.388;2023-02-28T08:32:22;4.05;;;3.53;;
2107;SDS011;1060;52.492;13.388;2023-02-28T08:34:49;4.20;;;3.58;;
2107;SDS011;1060;52.492;13.388;2023-02-28T08:37:15;3.58;;;2.70;;
2107;SDS011;1060;52.492;13.388;2023-02-28T08:39:47;5.78;;;3.50;;
2107;SDS011;1060;52.492;13.388;2023-02-28T08:42:13;7.03;;;3.80;;
2107;SDS011;1060;52.492;13.388;2023-02-28T08:44:39;3.60;;;2.17;;
2107;SDS011;1060;52.492;13.388;2023-02-28T08:47:06;5.75;;;4.50;;
2107;SDS011;1060;52.492;13.388;2023-02-28T08:49:32;3.60;;;2.50;;
2107;SDS011;1060;52.492;13.388;2023-02-28T08:52:02;4.68;;;2.65;;
2107;SDS011;1060;52.492;13.388;2023-02-28T08:54:40;2.58;;;2.38;;
2107;SDS011;1060;52.492;13.388;2023-02-28T08:57:06;6.47;;;3.45;;
2107;SDS011;1060;52.492;13.388;2023-02-28T08:59:33;5.35;;;3.42;;
2107;SDS011;1060;52.492;13.388;2023-02-28T09:01:59;1.90;;;1.80;;
2107;SDS011;1060;52.492;13.388;2023-02-28T09:04:27;3.50;;;2.55;;
2107;SDS011;1060;52.492;13.388;2023-02-28T09:06:59;11.30;;;2.88;;
2107;SDS011;1060;52.492;13.388;2023-02-28T09:09:29;4.15;;;3.80;;
2107;SDS011;1060;52.492;13.388;2023-02-28T09:11:55;5.95;;;3.58;;
2107;SDS011;1060;52.492;13.388;2023-02-28T09:14:24;6.70;;;5.10;;
2107;SDS011;1060;52.492;13.388;2023-02-28T09:16:57;8.32;;;6.57;;
2107;SDS011;1060;52.492;13.388;2023-02-28T09:19:26;4.07;;;3.42;;
2107;SDS011;1060;52.492;13.388;2023-02-28T09:21:55;4.75;;;3.10;;
2107;SDS011;1060;52.492;13.388;2023-02-28T09:24:22;6.80;;;3.67;;
2107;SDS011;1060;52.492;13.388;2023-02-28T09:26:59;2.28;;;2.08;;
2107;SDS011;1060;52.492;13.388;2023-02-28T09:29:46;3.00;;;2.72;;
2107;SDS011;1060;52.492;13.388;2023-02-28T09:32:12;7.47;;;4.05;;
2107;SDS011;1060;52.492;13.388;2023-02-28T09:34:39;9.00;;;3.60;;
2107;SDS011;1060;52.492;13.388;2023-02-28T09:37:07;4.65;;;3.13;;
2107;SDS011;1060;52.492;13.388;2023-02-28T09:42:32;3.45;;;2.33;;
2107;SDS011;1060;52.492;13.388;2023-02-28T09:45:05;5.00;;;3.80;;
2107;SDS011;1060;52.492;13.388;2023-02-28T09:47:34;4.65;;;3.42;;
2107;SDS011;1060;52.492;13.388;2023-02-28T09:52:46;7.18;;;3.28;;
2107;SDS011;1060;52.492;13.388;2023-02-28T09:58:05;4.30;;;1.85;;
2107;SDS011;1060;52.492;13.388;2023-02-28T10:00:44;4.13;;;2.28;;
2107;SDS011;1060;52.492;13.388;2023-02-28T10:03:30;5.68;;;2.20;;
2107;SDS011;1060;52.492;13.388;2023-02-28T10:11:20;2.83;;;2.10;;
2107;SDS011;1060;52.492;13.388;2023-02-28T10:16:46;6.55;;;2.30;;
2107;SDS011;1060;52.492;13.388;2023-02-28T10:19:28;4.50;;;3.05;;
2107;SDS011;1060;52.492;13.388;2023-02-28T10:27:30;5.50;;;3.00;;
2107;SDS011;1060;52.492;13.388;2023-02-28T10:30:01;9.98;;;2.60;;
2107;SDS011;1060;52.492;13.388;2023-02-28T10:32:40;4.25;;;2.90;;
2107;SDS011;1060;52.492;13.388;2023-02-28T10:35:20;3.08;;;2.20;;
2107;SDS011;1060;52.492;13.388;2023-02-28T10:37:48;4.60;;;2.33;;
2107;SDS011;1060;52.492;13.388;2023-02-28T10:49:03;7.40;;;3.28;;
2107;SDS011;1060;52.492;13.388;2023-02-28T10:51:38;2.75;;;2.25;;
2107;SDS011;1060;52.492;13.388;2023-02-28T10:54:04;3.80;;;2.83;;
2107;SDS011;1060;52.492;13.388;2023-02-28T10:56:31;3.53;;;3.22;;
2107;SDS011;1060;52.492;13.388;2023-02-28T10:59:20;3.97;;;2.58;;
2107;SDS011;1060;52.492;13.388;2023-02-28T11:01:48;6.25;;;3.30;;
2107;SDS011;1060;52.492;13.388;2023-02-28T11:07:20;4.25;;;2.60;;
2107;SDS011;1060;52.492;13.388;2023-02-28T11:09:56;7.63;;;5.05;;
2107;SDS011;1060;52.492;13.388;2023-02-28T11:12:54;5.93;;;3.58;;
2107;SDS011;1060;52.492;13.388;2023-02-28T11:15:32;4.22;;;2.80;;
2107;SDS011;1060;52.492;13.388;2023-02-28T11:18:08;6.90;;;4.82;;
2107;SDS011;1060;52.492;13.388;2023-02-28T11:20:46;9.60;;;4.03;;
2107;SDS011;1060;52.492;13.388;2023-02-28T11:23:13;12.35;;;4.13;;
2107;SDS011;1060;52.492;13.388;2023-02-28T11:26:00;7.50;;;5.63;;
2107;SDS011;1060;52.492;13.388;2023-02-28T11:29:02;5.18;;;3.90;;
2107;SDS011;1060;52.492;13.388;2023-02-28T11:31:42;9.05;;;4.22;;
2107;SDS011;1060;52.492;13.388;2023-02-28T11:34:22;8.27;;;3.88;;
2107;SDS011;1060;52.492;13.388;2023-02-28T11:36:56;5.70;;;4.53;;
2107;SDS011;1060;52.492;13.388;2023-02-28T11:39:26;3.88;;;3.50;;
2107;SDS011;1060;52.492;13.388;2023-02-28T11:42:11;5.00;;;3.38;;
2107;SDS011;1060;52.492;13.388;2023-02-28T11:47:48;4.35;;;3.95;;
2107;SDS011;1060;52.492;13.388;2023-02-28T11:53:10;6.45;;;4.38;;
2107;SDS011;1060;52.492;13.388;2023-02-28T12:04:44;4.65;;;3.58;;
2107;SDS011;1060;52.492;13.388;2023-02-28T12:18:40;6.85;;;5.32;;
2107;SDS011;1060;52.492;13.388;2023-02-28T12:21:27;3.63;;;3.30;;
2107;SDS011;1060;52.492;13.388;2023-02-28T12:24:04;5.25;;;4.13;;
2107;SDS011;1060;52.492;13.388;2023-02-28T12:29:14;4.45;;;4.05;;
2107;SDS011;1060;52.492;13.388;2023-02-28T12:31:51;3.97;;;3.58;;
2107;SDS011;1060;52.492;13.388;2023-02-28T12:34:20;4.18;;;2.78;;
2107;SDS011;1060;52.492;13.388;2023-02-28T12:36:47;3.90;;;3.15;;
2107;SDS011;1060;52.492;13.388;2023-02-28T12:39:31;4.28;;;3.88;;
2107;SDS011;1060;52.492;13.388;2023-02-28T12:42:01;4.63;;;2.83;;
2107;SDS011;1060;52.492;13.388;2023-02-28T12:47:05;5.22;;;4.75;;
2107;SDS011;1060;52.492;13.388;2023-02-28T12:49:44;5.03;;;3.22;;
2107;SDS011;1060;52.492;13.388;2023-02-28T12:52:13;3.90;;;3.60;;
2107;SDS011;1060;52.492;13.388;2023-02-28T12:54:52;6.13;;;4.05;;
2107;SDS011;1060;52.492;13.388;2023-02-28T12:57:40;4.57;;;4.18;;
2107;SDS011;1060;52.492;13.388;2023-02-28T13:00:29;3.00;;;2.75;;
2107;SDS011;1060;52.492;13.388;2023-02-28T13:05:37;5.57;;;3.85;;
2107;SDS011;1060;52.492;13.388;2023-02-28T14:06:25;4.43;;;3.77;;
2107;SDS011;1060;52.492;13.388;2023-02-28T14:11:48;4.70;;;3.90;;
2107;SDS011;1060;52.492;13.388;2023-02-28T14:17:12;5.55;;;4.20;;
2107;SDS011;1060;52.492;13.388;2023-02-28T14:25:33;3.63;;;3.33;;
2107;SDS011;1060;52.492;13.388;2023-02-28T14:31:07;4.75;;;3.83;;
2107;SDS011;1060;52.492;13.388;2023-02-28T14:33:53;4.40;;;4.00;;
2107;SDS011;1060;52.492;13.388;2023-02-28T14:36:33;3.28;;;3.00;;
2107;SDS011;1060;52.492;13.388;2023-02-28T14:39:30;5.97;;;5.07;;
2107;SDS011;1060;52.492;13.388;2023-02-28T14:42:24;4.50;;;3.75;;
2107;SDS011;1060;52.492;13.388;2023-02-28T14:45:27;5.63;;;3.53;;
2107;SDS011;1060;52.492;13.388;2023-02-28T14:48:19;4.13;;;2.73;;
2107;SDS011;1060;52.492;13.388;2023-02-28T14:50:50;4.82;;;3.35;;
2107;SDS011;1060;52.492;13.388;2023-02-28T14:53:18;6.23;;;3.10;;
2107;SDS011;1060;52.492;13.388;2023-02-28T14:55:48;6.28;;;3.47;;
2107;SDS011;1060;52.492;13.388;2023-02-28T14:58:25;4.85;;;4.10;;
2107;SDS011;1060;52.492;13.388;2023-02-28T15:00:56;8.13;;;5.72;;
2107;SDS011;1060;52.492;13.388;2023-02-28T15:03:32;3.95;;;3.65;;
2107;SDS011;1060;52.492;13.388;2023-02-28T15:06:00;3.63;;;3.20;;
2107;SDS011;1060;52.492;13.388;2023-02-28T15:08:30;4.53;;;3.90;;
2107;SDS011;1060;52.492;13.388;2023-02-28T15:11:07;4.50;;;4.07;;
2107;SDS011;1060;52.492;13.388;2023-02-28T15:13:43;6.00;;;5.30;;
2107;SDS011;1060;52.492;13.388;2023-02-28T15:16:20;5.68;;;5.18;;
2107;SDS011;1060;52.492;13.388;2023-02-28T15:18:54;7.43;;;4.40;;
2107;SDS011;1060;52.492;13.388;2023-02-28T15:21:57;4.40;;;3.03;;
2107;SDS011;1060;52.492;13.388;2023-02-28T15:24:20;4.93;;;4.53;;
2107;SDS011;1060;52.492;13.388;2023-02-28T15:26:54;9.60;;;4.43;;
2107;SDS011;1060;52.492;13.388;2023-02-28T15:29:26;4.30;;;3.90;;
2107;SDS011;1060;52.492;13.388;2023-02-28T15:32:01;7.95;;;4.18;;
2107;SDS011;1060;52.492;13.388;2023-02-28T15:40:49;3.60;;;3.30;;
2107;SDS011;1060;52.492;13.388;2023-02-28T15:43:28;4.53;;;4.13;;
2107;SDS011;1060;52.492;13.388;2023-02-28T15:46:05;7.55;;;4.90;;
2107;SDS011;1060;52.492;13.388;2023-02-28T15:48:33;8.20;;;6.17;;
2107;SDS011;1060;52.492;13.388;2023-02-28T15:51:07;7.32;;;5.15;;
2107;SDS011;1060;52.492;13.388;2023-02-28T15:53:38;5.53;;;4.07;;
2107;SDS011;1060;52.492;13.388;2023-02-28T15:56:13;6.47;;;5.23;;
2107;SDS011;1060;52.492;13.388;2023-02-28T15:58:43;4.10;;;3.70;;
2107;SDS011;1060;52.492;13.388;2023-02-28T16:01:21;5.13;;;4.47;;
2107;SDS011;1060;52.492;13.388;2023-02-28T16:03:50;4.60;;;3.78;;
2107;SDS011;1060;52.492;13.388;2023-02-28T16:08:44;4.47;;;4.07;;
2107;SDS011;1060;52.492;13.388;2023-02-28T16:11:10;8.77;;;5.68;;
2107;SDS011;1060;52.492;13.388;2023-02-28T16:13:40;11.07;;;4.25;;
2107;SDS011;1060;52.492;13.388;2023-02-28T16:16:06;5.18;;;4.68;;
2107;SDS011;1060;52.492;13.388;2023-02-28T16:18:35;4.38;;;3.97;;
2107;SDS011;1060;52.492;13.388;2023-02-28T16:21:04;6.68;;;5.05;;
2107;SDS011;1060;52.492;13.388;2023-02-28T16:23:31;3.95;;;3.55;;
2107;SDS011;1060;52.492;13.388;2023-02-28T16:25:57;9.20;;;4.70;;
2107;SDS011;1060;52.492;13.388;2023-02-28T16:28:25;4.25;;;3.45;;
2107;SDS011;1060;52.492;13.388;2023-02-28T16:33:54;6.72;;;3.75;;
2107;SDS011;1060;52.492;13.388;2023-02-28T16:36:21;4.30;;;3.53;;
2107;SDS011;1060;52.492;13.388;2023-02-28T16:38:50;5.15;;;3.78;;
2107;SDS011;1060;52.492;13.388;2023-02-28T16:41:17;10.10;;;5.15;;
2107;SDS011;1060;52.492;13.388;2023-02-28T16:43:45;4.88;;;4.00;;
2107;SDS011;1060;52.492;13.388;2023-02-28T16:46:15;6.40;;;4.47;;
2107;SDS011;1060;52.492;13.388;2023-02-28T16:48:43;5.15;;;4.40;;
2107;SDS011;1060;52.492;13.388;2023-02-28T16:51:16;6.82;;;6.30;;
2107;SDS011;1060;52.492;13.388;2023-02-28T16:53:48;6.72;;;6.13;;
2107;SDS011;1060;52.492;13.388;2023-02-28T16:56:23;14.00;;;12.52;;
2107;SDS011;1060;52.492;13.388;2023-02-28T17:06:04;6.57;;;5.97;;
2107;SDS011;1060;52.492;13.388;2023-02-28T18:39:56;21.08;;;13.70;;
2107;SDS011;1060;52.492;13.388;2023-02-28T18:42:23;19.55;;;13.32;;
2107;SDS011;1060;52.492;13.388;2023-02-28T18:50:17;15.15;;;12.68;;
2107;SDS011;1060;52.492;13.388;2023-02-28T19:14:37;16.92;;;11.25;;
2107;SDS011;1060;52.492;13.388;2023-02-28T19:17:33;23.23;;;15.13;;
2107;SDS011;1060;52.492;13.388;2023-02-28T19:20:03;15.23;;;13.57;;
2107;SDS011;1060;52.492;13.388;2023-02-28T19:48:15;14.32;;;11.95;;
2107;SDS011;1060;52.492;13.388;2023-02-28T19:51:09;14.40;;;10.93;;
2107;SDS011;1060;52.492;13.388;2023-02-28T19:53:39;9.70;;;8.70;;
2107;SDS011;1060;52.492;13.388;2023-02-28T19:56:27;10.18;;;8.50;;
2107;SDS011;1060;52.492;13.388;2023-02-28T19:58:56;12.70;;;11.43;;
2107;SDS011;1060;52.492;13.388;2023-02-28T20:01:25;20.52;;;12.73;;
2107;SDS011;1060;52.492;13.388;2023-02-28T20:03:55;18.17;;;13.85;;
2107;SDS011;1060;52.492;13.388;2023-02-28T20:06:24;14.30;;;12.57;;
2107;SDS011;1060;52.492;13.388;2023-02-28T20:09:03;20.85;;;12.48;;
2107;SDS011;1060;52.492;13.388;2023-02-28T20:11:32;17.75;;;13.13;;
2107;SDS011;1060;52.492;13.388;2023-02-28T20:13:59;22.52;;;14.73;;
2107;SDS011;1060;52.492;13.388;2023-02-28T20:16:30;16.83;;;13.38;;
2107;SDS011;1060;52.492;13.388;2023-02-28T20:19:16;17.08;;;13.90;;
2107;SDS011;1060;52.492;13.388;2023-02-28T20:21:43;19.75;;;14.65;;
2107;SDS011;1060;52.492;13.388;2023-02-28T20:24:10;22.63;;;15.65;;
2107;SDS011;1060;52.492;13.388;2023-02-28T20:26:37;19.20;;;14.68;;
2107;SDS011;1060;52.492;13.388;2023-02-28T20:29:07;23.92;;;14.02;;
2107;SDS011;1060;52.492;13.388;2023-02-28T20:31:44;17.20;;;13.73;;
2107;SDS011;1060;52.492;13.388;2023-02-28T20:34:33;21.52;;;16.73;;
2107;SDS011;1060;52.492;13.388;2023-02-28T20:37:17;17.85;;;13.75;;
2107;SDS011;1060;52.492;13.388;2023-02-28T20:39:43;19.27;;;15.32;;
2107;SDS011;1060;52.492;13.388;2023-02-28T20:42:10;24.35;;;16.40;;
2107;SDS011;1060;52.492;13.388;2023-02-28T20:44:39;23.67;;;13.80;;
2107;SDS011;1060;52.492;13.388;2023-02-28T20:47:07;21.65;;;16.08;;
2107;SDS011;1060;52.492;13.388;2023-02-28T20:49:33;24.77;;;15.43;;
2107;SDS011;1060;52.492;13.388;2023-02-28T20:52:03;21.67;;;17.08;;
2107;SDS011;1060;52.492;13.388;2023-02-28T20:54:37;23.27;;;14.70;;
2107;SDS011;1060;52.492;13.388;2023-02-28T20:57:03;20.75;;;16.60;;
2107;SDS011;1060;52.492;13.388;2023-02-28T20:59:32;21.08;;;14.88;;